Time;durP1;ratioP1;P1;durP2;ratioP2;P2;SDS_P1;SDS_P2;PMS_P1;PMS_P2;Temp;Humidity;BMP_temperature;BMP_pressure;BME280_temperature;BME280_humidity;BME280_pressure;Samples;Min_cycle;Max_cycle;Signal;HPM_P1;HPM_P2
2022/10/27 07:03:44;;;;;;;4.57;3.30;;;;;;;;;;12857047;22;1704928;-86
2022/10/27 07:08:46;;;;;;;4.93;3.55;;;;;;;;;;12771926;23;20051;-85
2022/10/27 07:13:50;;;;;;;5.80;3.40;;;;;;;;;;12790669;23;20009;-85
2022/10/27 07:18:51;;;;;;;4.55;3.20;;;;;;;;;;12788077;23;20009;-85
2022/10/27 07:23:52;;;;;;;5.07;3.25;;;;;;;;;;12787755;23;20048;-85
2022/10/27 07:28:53;;;;;;;4.55;3.28;;;;;;;;;;12787101;23;20015;-85
2022/10/27 07:33:57;;;;;;;10.32;3.40;;;;;;;;;;12787025;23;20001;-85
2022/10/27 07:38:58;;;;;;;6.63;3.58;;;;;;;;;;12788476;23;20009;-85
2022/10/27 07:43:59;;;;;;;7.72;3.20;;;;;;;;;;12811340;23;20012;-85
2022/10/27 07:49:00;;;;;;;7.85;4.10;;;;;;;;;;12787492;23;20061;-85
2022/10/27 07:54:01;;;;;;;7.78;3.63;;;;;;;;;;12788341;23;20005;-85
2022/10/27 07:59:02;;;;;;;5.28;3.50;;;;;;;;;;12789841;23;20012;-85
2022/10/27 08:04:03;;;;;;;7.07;4.00;;;;;;;;;;12786919;23;20044;-85
2022/10/27 08:09:04;;;;;;;7.32;3.75;;;;;;;;;;12786721;23;20016;-85
2022/10/27 08:14:05;;;;;;;10.85;3.60;;;;;;;;;;12787596;23;20441;-85
2022/10/27 08:19:06;;;;;;;5.55;3.58;;;;;;;;;;12793823;23;20051;-85
2022/10/27 08:24:08;;;;;;;6.28;3.63;;;;;;;;;;12795849;23;20009;-84
2022/10/27 08:29:09;;;;;;;7.70;3.45;;;;;;;;;;12794318;23;19997;-83
2022/10/27 08:34:10;;;;;;;7.10;3.22;;;;;;;;;;12793097;23;20005;-84
2022/10/27 08:39:21;;;;;;;6.18;3.30;;;;;;;;;;12819186;23;20017;-83
2022/10/27 08:44:41;;;;;;;6.82;3.10;;;;;;;;;;12791850;23;20013;-84
2022/10/27 08:50:03;;;;;;;5.57;3.03;;;;;;;;;;12790368;23;20013;-83
2022/10/27 08:55:27;;;;;;;8.45;3.72;;;;;;;;;;12786318;23;20023;-83
2022/10/27 09:00:37;;;;;;;4.78;2.10;;;;;;;;;;12787119;23;20092;-83
2022/10/27 09:05:53;;;;;;;7.57;2.72;;;;;;;;;;12785955;23;20009;-83
2022/10/27 09:11:17;;;;;;;5.03;2.60;;;;;;;;;;12811958;23;20016;-83
2022/10/27 09:16:27;;;;;;;6.50;2.55;;;;;;;;;;12786539;23;20005;-84
2022/10/27 09:21:38;;;;;;;5.15;2.08;;;;;;;;;;12814955;23;20036;-83
2022/10/27 09:26:42;;;;;;;4.20;1.67;;;;;;;;;;12787011;23;20032;-83
2022/10/27 09:31:50;;;;;;;6.15;2.20;;;;;;;;;;12814417;23;20020;-83
2022/10/27 09:36:51;;;;;;;2.42;1.50;;;;;;;;;;12787719;23;20104;-82
2022/10/27 09:42:14;;;;;;;4.45;1.58;;;;;;;;;;12788228;23;20055;-83
2022/10/27 09:47:37;;;;;;;3.20;1.00;;;;;;;;;;12563438;23;20063;-80
2022/10/27 09:52:42;;;;;;;5.50;1.48;;;;;;;;;;12740968;23;20088;-81
2022/10/27 09:57:43;;;;;;;3.75;1.00;;;;;;;;;;12789136;23;20441;-83
2022/10/27 10:02:57;;;;;;;4.30;1.50;;;;;;;;;;12735811;23;20057;-87
2022/10/27 10:08:35;;;;;;;3.35;1.80;;;;;;;;;;12712012;23;20014;-87
2022/10/27 10:14:08;;;;;;;3.63;1.70;;;;;;;;;;12531396;23;20011;-88
2022/10/27 10:30:58;;;;;;;3.30;1.20;;;;;;;;;;12557038;23;20435;-90
2022/10/27 10:36:31;;;;;;;5.65;1.20;;;;;;;;;;12509995;23;20022;-88
2022/10/27 10:42:20;;;;;;;7.07;1.17;;;;;;;;;;12514054;23;20017;-88
2022/10/27 10:47:47;;;;;;;5.05;1.27;;;;;;;;;;12644942;23;20435;-88
2022/10/27 11:21:23;;;;;;;7.22;1.85;;;;;;;;;;12678645;23;20447;-87
2022/10/27 11:27:01;;;;;;;3.92;2.15;;;;;;;;;;12682077;23;20028;-88
2022/10/27 11:32:24;;;;;;;4.28;1.60;;;;;;;;;;12695948;23;20002;-89
2022/10/27 11:49:20;;;;;;;4.32;1.50;;;;;;;;;;12694978;23;20030;-88
2022/10/27 11:54:29;;;;;;;4.10;1.55;;;;;;;;;;12664537;23;20165;-87
2022/10/27 12:00:02;;;;;;;3.47;1.58;;;;;;;;;;12667954;23;20386;-87
2022/10/27 12:05:37;;;;;;;3.17;1.90;;;;;;;;;;12445693;23;20153;-87
2022/10/27 12:10:53;;;;;;;22.17;17.42;;;;;;;;;;12505663;23;20018;-87
2022/10/27 12:16:17;;;;;;;4.55;2.10;;;;;;;;;;12480960;23;20050;-87
2022/10/27 12:21:37;;;;;;;4.40;2.03;;;;;;;;;;12478443;23;20044;-86
2022/10/27 12:26:50;;;;;;;4.82;1.65;;;;;;;;;;12595240;23;20022;-86
2022/10/27 12:32:06;;;;;;;4.13;1.80;;;;;;;;;;12659669;23;20009;-86
2022/10/27 12:37:22;;;;;;;4.20;1.90;;;;;;;;;;12684867;23;20014;-88
2022/10/27 12:42:32;;;;;;;4.00;1.55;;;;;;;;;;12680321;23;20006;-86
2022/10/27 12:47:55;;;;;;;4.82;1.98;;;;;;;;;;12654037;23;20088;-88
2022/10/27 12:53:15;;;;;;;3.53;1.33;;;;;;;;;;12652047;23;20006;-87
2022/10/27 13:53:49;;;;;;;7.22;2.25;;;;;;;;;;12843948;23;20021;-87
2022/10/27 13:59:16;;;;;;;4.13;1.92;;;;;;;;;;12790956;23;20012;-86
2022/10/27 14:04:17;;;;;;;4.43;1.73;;;;;;;;;;12861236;23;20062;-86
2022/10/27 14:09:44;;;;;;;6.55;2.17;;;;;;;;;;12864648;23;20001;-87
2022/10/27 14:20:46;;;;;;;6.22;2.17;;;;;;;;;;12878939;23;20000;-86
2022/10/27 14:31:32;;;;;;;5.72;3.33;;;;;;;;;;12884407;23;20497;-86
2022/10/27 14:37:08;;;;;;;7.80;2.17;;;;;;;;;;12855371;23;20004;-87
2022/10/27 14:42:22;;;;;;;6.82;2.50;;;;;;;;;;12879395;23;20013;-86
2022/10/27 14:48:01;;;;;;;6.13;2.80;;;;;;;;;;12848026;23;20004;-87
2022/10/27 14:53:04;;;;;;;6.40;2.55;;;;;;;;;;12872802;23;20012;-86
2022/10/27 14:58:21;;;;;;;5.95;2.45;;;;;;;;;;12871878;23;20463;-86
2022/10/27 15:09:19;;;;;;;11.70;4.78;;;;;;;;;;12870518;23;20008;-87
2022/10/27 15:20:50;;;;;;;5.97;2.45;;;;;;;;;;12870888;23;20417;-87
2022/10/27 15:31:59;;;;;;;5.70;2.60;;;;;;;;;;12869127;23;20340;-86
2022/10/27 15:37:51;;;;;;;9.40;2.97;;;;;;;;;;12798927;23;20039;-87
2022/10/27 15:49:13;;;;;;;8.85;3.42;;;;;;;;;;12497770;23;20015;-87
2022/10/27 17:25:15;;;;;;;5.88;3.10;;;;;;;;;;12827172;23;20028;-83
2022/10/27 17:30:19;;;;;;;7.85;3.15;;;;;;;;;;12843730;23;20070;-83
2022/10/27 17:57:27;;;;;;;11.32;3.58;;;;;;;;;;12865369;23;20012;-86
2022/10/27 18:14:32;;;;;;;9.60;3.58;;;;;;;;;;12738018;23;20052;-86
2022/10/27 18:59:27;;;;;;;6.97;3.15;;;;;;;;;;12867832;23;20036;-86
2022/10/27 19:10:49;;;;;;;4.68;2.78;;;;;;;;;;12741437;23;20018;-86
